This is the latest recevied weather packets stored in our database for station/object N0NB. If no packets are shown the sender has not sent any weather packets the latest 10 day(s).
| Time | Temp. | Humidity | Pressure | Rain* | Wind** | Luminosity | Snow |
|---|---|---|---|---|---|---|---|
| 1777771216 | 15.56° C | 37% | 1015.2 hPa | 0 mm | - | 7 W/m² | - |
| 1777770616 | 16.11° C | 36% | 1015.2 hPa | 0 mm | - | 13 W/m² | - |
| 1777770016 | 16.67° C | 35% | 1015.2 hPa | 0 mm | - | 21 W/m² | - |
| 1777769416 | 17.22° C | 34% | 1015.1 hPa | 0 mm | - | 40 W/m² | - |
| 1777768816 | 17.78° C | 34% | 1015.2 hPa | 0 mm | - | 63 W/m² | - |
| 1777768216 | 18.33° C | 31% | 1015.3 hPa | 0 mm | - | 91 W/m² | - |
| 1777767616 | 18.33° C | 33% | 1015.3 hPa | 0 mm | - | 123 W/m² | - |
| 1777767016 | 18.89° C | 31% | 1015.4 hPa | 0 mm | - | 159 W/m² | - |
| 1777766416 | 18.89° C | 31% | 1015.6 hPa | 0 mm | - | 198 W/m² | - |
| 1777765816 | 18.89° C | 32% | 1015.7 hPa | 0 mm | - | 231 W/m² | - |
| 1777765216 | 18.89° C | 31% | 1015.7 hPa | 0 mm | - | 263 W/m² | - |
| 1777764616 | 19.44° C | 31% | 1015.7 hPa | 0 mm | - | 295 W/m² | - |
| 1777764016 | 20° C | 29% | 1015.7 hPa | 0 mm | - | 326 W/m² | - |
| 1777763416 | 19.44° C | 28% | 1015.9 hPa | 0 mm | - | 359 W/m² | - |
| 1777762816 | 19.44° C | 32% | 1016 hPa | 0 mm | - | 389 W/m² | - |
| 1777762216 | 19.44° C | 32% | 1016 hPa | 0 mm | - | 420 W/m² | - |
| 1777761616 | 19.44° C | 30% | 1016.1 hPa | 0 mm | - | 449 W/m² | - |
| 1777761016 | 19.44° C | 34% | 1016.2 hPa | 0 mm | - | 481 W/m² | - |
| 1777760416 | 19.44° C | 32% | 1016.4 hPa | 0 mm | - | 513 W/m² | - |
| 1777759816 | 19.44° C | 30% | 1016.5 hPa | 0 mm | - | 539 W/m² | - |
| 1777759216 | 19.44° C | 29% | 1016.7 hPa | 0 mm | - | 569 W/m² | - |
| 1777758616 | 19.44° C | 31% | 1016.8 hPa | 0 mm | - | 594 W/m² | - |
| 1777758016 | 19.44° C | 30% | 1016.9 hPa | 0 mm | - | 621 W/m² | - |
| 1777757416 | 19.44° C | 34% | 1016.9 hPa | 0 mm | - | 646 W/m² | - |
| 1777756816 | 19.44° C | 32% | 1017.2 hPa | 0 mm | - | 671 W/m² | - |
* Rain latest hour (hover to see other rain measurements)
** Current wind speed in m/s (hover to see current wind gust speed)